sensor_id;sensor_type;location;lat;lon;timestamp;pressure;altitude;pressure_sealevel;temperature;humidity
54592;BME280;40488;48.558;18.150;2023-02-10T00:02:26;101666.41;;;-5.68;74.15
54592;BME280;40488;48.558;18.150;2023-02-10T00:04:57;101664.81;;;-5.67;74.17
54592;BME280;40488;48.558;18.150;2023-02-10T00:07:27;101656.03;;;-5.64;73.76
54592;BME280;40488;48.558;18.150;2023-02-10T00:09:56;101653.53;;;-5.64;74.06
54592;BME280;40488;48.558;18.150;2023-02-10T00:12:25;101644.19;;;-5.66;73.79
54592;BME280;40488;48.558;18.150;2023-02-10T00:14:54;101659.97;;;-5.66;73.94
54592;BME280;40488;48.558;18.150;2023-02-10T00:17:23;101664.38;;;-5.72;74.23
54592;BME280;40488;48.558;18.150;2023-02-10T00:19:52;101666.13;;;-5.71;74.12
54592;BME280;40488;48.558;18.150;2023-02-10T00:22:20;101679.88;;;-5.66;74.24
54592;BME280;40488;48.558;18.150;2023-02-10T00:24:51;101679.28;;;-5.55;74.27
54592;BME280;40488;48.558;18.150;2023-02-10T00:27:20;101676.66;;;-5.48;74.26
54592;BME280;40488;48.558;18.150;2023-02-10T00:29:51;101683.06;;;-5.41;74.29
54592;BME280;40488;48.558;18.150;2023-02-10T00:32:20;101684.25;;;-5.37;74.11
54592;BME280;40488;48.558;18.150;2023-02-10T00:34:49;101686.28;;;-5.33;73.93
54592;BME280;40488;48.558;18.150;2023-02-10T00:37:17;101682.03;;;-5.34;74.35
54592;BME280;40488;48.558;18.150;2023-02-10T00:39:46;101687.47;;;-5.38;74.10
54592;BME280;40488;48.558;18.150;2023-02-10T00:42:16;101690.97;;;-5.36;74.12
54592;BME280;40488;48.558;18.150;2023-02-10T00:44:45;101686.28;;;-5.33;73.86
54592;BME280;40488;48.558;18.150;2023-02-10T00:47:14;101686.56;;;-5.30;74.11
54592;BME280;40488;48.558;18.150;2023-02-10T00:49:43;101691.25;;;-5.33;74.02
54592;BME280;40488;48.558;18.150;2023-02-10T00:52:11;101690.53;;;-5.41;73.84
54592;BME280;40488;48.558;18.150;2023-02-10T00:54:41;101702.09;;;-5.42;73.99
54592;BME280;40488;48.558;18.150;2023-02-10T00:57:10;101703.28;;;-5.38;73.78
54592;BME280;40488;48.558;18.150;2023-02-10T00:59:40;101697.41;;;-5.38;73.60
54592;BME280;40488;48.558;18.150;2023-02-10T01:02:09;101695.94;;;-5.36;73.83
54592;BME280;40488;48.558;18.150;2023-02-10T01:04:38;101690.06;;;-5.37;73.67
54592;BME280;40488;48.558;18.150;2023-02-10T01:07:07;101693.00;;;-5.32;73.66
54592;BME280;40488;48.558;18.150;2023-02-10T01:09:36;101690.81;;;-5.29;73.82
54592;BME280;40488;48.558;18.150;2023-02-10T01:12:05;101696.53;;;-5.39;73.34
54592;BME280;40488;48.558;18.150;2023-02-10T01:14:35;101687.75;;;-5.61;73.37
54592;BME280;40488;48.558;18.150;2023-02-10T01:17:06;101695.69;;;-5.57;73.44
54592;BME280;40488;48.558;18.150;2023-02-10T01:19:35;101696.25;;;-5.51;73.54
54592;BME280;40488;48.558;18.150;2023-02-10T01:22:04;101684.84;;;-5.49;73.34
54592;BME280;40488;48.558;18.150;2023-02-10T01:24:33;101683.09;;;-5.50;73.49
54592;BME280;40488;48.558;18.150;2023-02-10T01:27:01;101678.69;;;-5.61;73.55
54592;BME280;40488;48.558;18.150;2023-02-10T01:29:30;101671.41;;;-5.68;73.40
54592;BME280;40488;48.558;18.150;2023-02-10T01:31:59;101669.34;;;-5.72;73.50
54592;BME280;40488;48.558;18.150;2023-02-10T01:34:29;101654.78;;;-5.86;73.30
54592;BME280;40488;48.558;18.150;2023-02-10T01:36:58;101660.75;;;-5.92;73.65
54592;BME280;40488;48.558;18.150;2023-02-10T01:39:27;101659.28;;;-5.99;73.28
54592;BME280;40488;48.558;18.150;2023-02-10T01:41:55;101653.47;;;-6.08;73.62
54592;BME280;40488;48.558;18.150;2023-02-10T01:47:15;101639.00;;;-6.12;73.59
54592;BME280;40488;48.558;18.150;2023-02-10T01:49:47;101630.63;;;-6.21;73.98
54592;BME280;40488;48.558;18.150;2023-02-10T01:52:21;101622.00;;;-6.16;74.12
54592;BME280;40488;48.558;18.150;2023-02-10T01:54:54;101634.03;;;-6.12;74.18
54592;BME280;40488;48.558;18.150;2023-02-10T01:57:24;101630.63;;;-6.21;74.05
54592;BME280;40488;48.558;18.150;2023-02-10T01:59:55;101639.53;;;-6.23;74.01
54592;BME280;40488;48.558;18.150;2023-02-10T02:02:25;101628.28;;;-6.28;73.99
54592;BME280;40488;48.558;18.150;2023-02-10T02:04:59;101624.34;;;-6.35;73.98
54592;BME280;40488;48.558;18.150;2023-02-10T02:07:32;101627.13;;;-6.23;74.18
54592;BME280;40488;48.558;18.150;2023-02-10T02:10:05;101630.50;;;-6.23;74.40
54592;BME280;40488;48.558;18.150;2023-02-10T02:12:40;101631.06;;;-6.17;74.39
54592;BME280;40488;48.558;18.150;2023-02-10T02:15:14;101629.31;;;-6.09;74.25
54592;BME280;40488;48.558;18.150;2023-02-10T02:17:52;101636.22;;;-5.98;74.50
54592;BME280;40488;48.558;18.150;2023-02-10T02:20:57;101640.75;;;-5.94;74.23
54592;BME280;40488;48.558;18.150;2023-02-10T02:23:43;101647.03;;;-5.89;74.18
54592;BME280;40488;48.558;18.150;2023-02-10T02:29:37;101666.72;;;-5.82;74.18
54592;BME280;40488;48.558;18.150;2023-02-10T02:32:16;101663.53;;;-5.81;74.38
54592;BME280;40488;48.558;18.150;2023-02-10T02:34:51;101653.75;;;-5.88;74.33
54592;BME280;40488;48.558;18.150;2023-02-10T02:37:23;101654.78;;;-5.86;74.04
54592;BME280;40488;48.558;18.150;2023-02-10T02:39:55;101646.84;;;-5.82;74.36
54592;BME280;40488;48.558;18.150;2023-02-10T02:42:26;101643.63;;;-5.81;74.17
54592;BME280;40488;48.558;18.150;2023-02-10T02:44:59;101649.19;;;-5.75;74.47
54592;BME280;40488;48.558;18.150;2023-02-10T02:47:56;101648.03;;;-5.78;73.92
54592;BME280;40488;48.558;18.150;2023-02-10T02:50:32;101643.06;;;-5.78;73.94
54592;BME280;40488;48.558;18.150;2023-02-10T02:53:09;101637.81;;;-5.90;73.92
54592;BME280;40488;48.558;18.150;2023-02-10T02:55:50;101629.03;;;-5.95;74.01
54592;BME280;40488;48.558;18.150;2023-02-10T02:58:29;101633.56;;;-6.17;73.94
54592;BME280;40488;48.558;18.150;2023-02-10T03:01:02;101629.63;;;-6.23;74.41
54592;BME280;40488;48.558;18.150;2023-02-10T03:03:36;101643.34;;;-6.18;74.63
54592;BME280;40488;48.558;18.150;2023-02-10T03:06:07;101652.75;;;-6.07;74.74
54592;BME280;40488;48.558;18.150;2023-02-10T03:08:38;101655.22;;;-6.07;74.42
54592;BME280;40488;48.558;18.150;2023-02-10T03:11:08;101650.09;;;-6.00;74.43
54592;BME280;40488;48.558;18.150;2023-02-10T03:13:37;101649.19;;;-6.09;74.32
54592;BME280;40488;48.558;18.150;2023-02-10T03:16:06;101634.44;;;-6.16;74.32
54592;BME280;40488;48.558;18.150;2023-02-10T03:18:36;101628.72;;;-6.24;74.34
54592;BME280;40488;48.558;18.150;2023-02-10T03:21:05;101616.75;;;-6.28;74.56
54592;BME280;40488;48.558;18.150;2023-02-10T03:23:34;101630.63;;;-6.21;74.42
54592;BME280;40488;48.558;18.150;2023-02-10T03:26:04;101642.91;;;-6.31;74.02
54592;BME280;40488;48.558;18.150;2023-02-10T03:28:33;101645.94;;;-6.42;74.03
54592;BME280;40488;48.558;18.150;2023-02-10T03:31:03;101649.47;;;-6.40;74.23
54592;BME280;40488;48.558;18.150;2023-02-10T03:33:33;101658.22;;;-6.35;73.92
54592;BME280;40488;48.558;18.150;2023-02-10T03:36:04;101660.72;;;-6.44;74.05
54592;BME280;40488;48.558;18.150;2023-02-10T03:38:32;101661.16;;;-6.39;74.02
54592;BME280;40488;48.558;18.150;2023-02-10T03:41:01;101655.00;;;-6.43;74.19
54592;BME280;40488;48.558;18.150;2023-02-10T03:43:30;101653.00;;;-6.38;74.37
54592;BME280;40488;48.558;18.150;2023-02-10T03:46:00;101648.75;;;-6.39;73.91
54592;BME280;40488;48.558;18.150;2023-02-10T03:48:30;101639.09;;;-6.45;74.52
54592;BME280;40488;48.558;18.150;2023-02-10T03:51:01;101659.56;;;-6.39;74.47
54592;BME280;40488;48.558;18.150;2023-02-10T03:53:32;101658.22;;;-6.44;74.22
54592;BME280;40488;48.558;18.150;2023-02-10T03:56:01;101656.78;;;-6.42;74.39
54592;BME280;40488;48.558;18.150;2023-02-10T03:58:30;101651.94;;;-6.40;74.37
54592;BME280;40488;48.558;18.150;2023-02-10T04:00:59;101652.84;;;-6.31;74.64
54592;BME280;40488;48.558;18.150;2023-02-10T04:03:27;101646.56;;;-6.36;74.17
54592;BME280;40488;48.558;18.150;2023-02-10T04:05:56;101638.94;;;-6.46;74.11
54592;BME280;40488;48.558;18.150;2023-02-10T04:08:26;101644.50;;;-6.49;73.95
54592;BME280;40488;48.558;18.150;2023-02-10T04:10:57;101643.59;;;-6.58;74.12
54592;BME280;40488;48.558;18.150;2023-02-10T04:13:26;101653.22;;;-6.69;74.08
54592;BME280;40488;48.558;18.150;2023-02-10T04:16:02;101638.59;;;-6.75;73.98
54592;BME280;40488;48.558;18.150;2023-02-10T04:18:31;101655.78;;;-6.76;74.03
54592;BME280;40488;48.558;18.150;2023-02-10T04:21:01;101658.88;;;-6.70;74.06
54592;BME280;40488;48.558;18.150;2023-02-10T04:23:30;101663.41;;;-6.75;74.30
54592;BME280;40488;48.558;18.150;2023-02-10T04:26:00;101657.88;;;-6.72;74.40
54592;BME280;40488;48.558;18.150;2023-02-10T04:28:29;101664.28;;;-6.74;74.35
54592;BME280;40488;48.558;18.150;2023-02-10T04:31:00;101661.06;;;-6.73;74.33
54592;BME280;40488;48.558;18.150;2023-02-10T04:33:29;101663.84;;;-6.70;74.41
54592;BME280;40488;48.558;18.150;2023-02-10T04:35:58;101657.25;;;-6.78;74.39
54592;BME280;40488;48.558;18.150;2023-02-10T04:38:30;101659.31;;;-6.74;74.46
54592;BME280;40488;48.558;18.150;2023-02-10T04:41:00;101649.41;;;-6.74;74.54
54592;BME280;40488;48.558;18.150;2023-02-10T04:43:30;101659.31;;;-6.74;74.37
54592;BME280;40488;48.558;18.150;2023-02-10T04:45:58;101651.50;;;-6.86;74.53
54592;BME280;40488;48.558;18.150;2023-02-10T04:48:29;101649.63;;;-6.89;74.14
54592;BME280;40488;48.558;18.150;2023-02-10T04:50:58;101652.25;;;-6.87;74.46
54592;BME280;40488;48.558;18.150;2023-02-10T04:53:27;101658.69;;;-6.81;74.36
54592;BME280;40488;48.558;18.150;2023-02-10T04:55:56;101655.78;;;-6.76;74.41
54592;BME280;40488;48.558;18.150;2023-02-10T04:58:27;101649.66;;;-6.71;74.50
54592;BME280;40488;48.558;18.150;2023-02-10T05:00:56;101648.47;;;-6.84;74.44
54592;BME280;40488;48.558;18.150;2023-02-10T05:03:25;101637.38;;;-6.78;74.25
54592;BME280;40488;48.558;18.150;2023-02-10T05:05:54;101648.25;;;-6.69;74.59
54592;BME280;40488;48.558;18.150;2023-02-10T05:08:23;101656.38;;;-6.79;74.26
54592;BME280;40488;48.558;18.150;2023-02-10T05:10:52;101652.53;;;-6.93;74.35
54592;BME280;40488;48.558;18.150;2023-02-10T05:13:21;101648.31;;;-6.94;74.34
54592;BME280;40488;48.558;18.150;2023-02-10T05:15:51;101645.38;;;-6.90;74.28
54592;BME280;40488;48.558;18.150;2023-02-10T05:18:20;101643.75;;;-6.98;74.18
54592;BME280;40488;48.558;18.150;2023-02-10T05:20:50;101648.69;;;-6.98;74.19
54592;BME280;40488;48.558;18.150;2023-02-10T05:23:19;101660.25;;;-6.98;74.39
54592;BME280;40488;48.558;18.150;2023-02-10T05:25:47;101657.28;;;-7.03;74.26
54592;BME280;40488;48.558;18.150;2023-02-10T05:28:16;101649.56;;;-7.06;74.26
54592;BME280;40488;48.558;18.150;2023-02-10T05:30:46;101666.50;;;-7.02;74.51
54592;BME280;40488;48.558;18.150;2023-02-10T05:33:17;101666.25;;;-6.96;74.54
54592;BME280;40488;48.558;18.150;2023-02-10T05:35:47;101675.16;;;-6.90;74.44
54592;BME280;40488;48.558;18.150;2023-02-10T05:38:16;101679.09;;;-6.92;74.42
54592;BME280;40488;48.558;18.150;2023-02-10T05:40:45;101675.88;;;-6.91;74.42
54592;BME280;40488;48.558;18.150;2023-02-10T05:43:13;101673.59;;;-6.81;74.50
54592;BME280;40488;48.558;18.150;2023-02-10T05:45:42;101684.84;;;-6.75;74.62
54592;BME280;40488;48.558;18.150;2023-02-10T05:48:14;101704.00;;;-6.74;74.40
54592;BME280;40488;48.558;18.150;2023-02-10T05:50:44;101687.22;;;-6.68;74.56
54592;BME280;40488;48.558;18.150;2023-02-10T05:53:18;101678.94;;;-6.60;74.37
54592;BME280;40488;48.558;18.150;2023-02-10T05:55:47;101683.59;;;-6.63;74.31
54592;BME280;40488;48.558;18.150;2023-02-10T05:58:16;101697.34;;;-6.58;74.42
54592;BME280;40488;48.558;18.150;2023-02-10T06:00:45;101698.78;;;-6.60;74.14
54592;BME280;40488;48.558;18.150;2023-02-10T06:03:14;101692.63;;;-6.64;73.61
54592;BME280;40488;48.558;18.150;2023-02-10T06:05:44;101680.06;;;-6.65;73.89
54592;BME280;40488;48.558;18.150;2023-02-10T06:08:13;101682.69;;;-6.72;73.79
54592;BME280;40488;48.558;18.150;2023-02-10T06:10:42;101700.06;;;-6.72;74.05
54592;BME280;40488;48.558;18.150;2023-02-10T06:13:11;101711.72;;;-6.71;74.05
54592;BME280;40488;48.558;18.150;2023-02-10T06:15:40;101699.53;;;-6.86;73.95
54592;BME280;40488;48.558;18.150;2023-02-10T06:18:08;101690.50;;;-6.85;74.27
54592;BME280;40488;48.558;18.150;2023-02-10T06:20:37;101712.69;;;-6.87;74.30
54592;BME280;40488;48.558;18.150;2023-02-10T06:23:07;101703.38;;;-6.81;74.35
54592;BME280;40488;48.558;18.150;2023-02-10T06:25:36;101719.41;;;-6.86;74.10
54592;BME280;40488;48.558;18.150;2023-02-10T06:28:05;101720.28;;;-6.85;74.38
54592;BME280;40488;48.558;18.150;2023-02-10T06:30:34;101720.50;;;-6.66;74.45
54592;BME280;40488;48.558;18.150;2023-02-10T06:33:03;101718.59;;;-6.36;74.38
54592;BME280;40488;48.558;18.150;2023-02-10T06:35:33;101698.75;;;-6.19;74.02
54592;BME280;40488;48.558;18.150;2023-02-10T06:38:01;101697.56;;;-6.31;74.03
54592;BME280;40488;48.558;18.150;2023-02-10T06:40:32;101712.47;;;-6.14;74.30
54592;BME280;40488;48.558;18.150;2023-02-10T06:43:00;101714.41;;;-6.03;73.98
54592;BME280;40488;48.558;18.150;2023-02-10T06:45:29;101710.75;;;-5.89;74.00
54592;BME280;40488;48.558;18.150;2023-02-10T06:47:59;101717.91;;;-5.84;73.90
54592;BME280;40488;48.558;18.150;2023-02-10T06:50:28;101709.56;;;-5.76;73.41
54592;BME280;40488;48.558;18.150;2023-02-10T06:52:57;101711.31;;;-5.75;73.42
54592;BME280;40488;48.558;18.150;2023-02-10T06:55:25;101710.03;;;-5.71;73.44
54592;BME280;40488;48.558;18.150;2023-02-10T06:57:59;101721.13;;;-5.68;73.05
54592;BME280;40488;48.558;18.150;2023-02-10T07:00:29;101721.28;;;-5.58;72.90
54592;BME280;40488;48.558;18.150;2023-02-10T07:02:59;101731.78;;;-5.52;73.19
54592;BME280;40488;48.558;18.150;2023-02-10T07:05:28;101735.28;;;-5.32;73.36
54592;BME280;40488;48.558;18.150;2023-02-10T07:07:58;101741.88;;;-5.24;72.92
54592;BME280;40488;48.558;18.150;2023-02-10T07:10:30;101741.91;;;-5.33;72.99
54592;BME280;40488;48.558;18.150;2023-02-10T07:13:01;101741.28;;;-5.22;72.79
54592;BME280;40488;48.558;18.150;2023-02-10T07:15:29;101741.72;;;-5.09;72.49
54592;BME280;40488;48.558;18.150;2023-02-10T07:17:59;101742.09;;;-4.87;72.91
54592;BME280;40488;48.558;18.150;2023-02-10T07:20:28;101745.81;;;-4.65;72.55
54592;BME280;40488;48.558;18.150;2023-02-10T07:22:57;101746.94;;;-4.53;72.13
54592;BME280;40488;48.558;18.150;2023-02-10T07:25:26;101750.53;;;-4.68;71.82
54592;BME280;40488;48.558;18.150;2023-02-10T07:27:55;101739.22;;;-4.56;72.07
54592;BME280;40488;48.558;18.150;2023-02-10T07:30:25;101728.44;;;-4.38;72.06
54592;BME280;40488;48.558;18.150;2023-02-10T07:32:54;101734.81;;;-4.23;71.73
54592;BME280;40488;48.558;18.150;2023-02-10T07:35:23;101742.72;;;-4.27;71.35
54592;BME280;40488;48.558;18.150;2023-02-10T07:37:52;101749.41;;;-4.17;71.38
54592;BME280;40488;48.558;18.150;2023-02-10T07:40:20;101750.69;;;-4.03;70.99
54592;BME280;40488;48.558;18.150;2023-02-10T07:42:49;101744.69;;;-4.05;71.11
54592;BME280;40488;48.558;18.150;2023-02-10T07:45:36;101735.25;;;-3.99;70.87
54592;BME280;40488;48.558;18.150;2023-02-10T07:48:06;101741.03;;;-3.90;71.49
54592;BME280;40488;48.558;18.150;2023-02-10T07:50:35;101750.59;;;-3.68;71.20
54592;BME280;40488;48.558;18.150;2023-02-10T07:53:04;101746.59;;;-3.47;71.05
54592;BME280;40488;48.558;18.150;2023-02-10T07:55:33;101762.78;;;-3.52;70.47
54592;BME280;40488;48.558;18.150;2023-02-10T07:58:02;101754.63;;;-3.41;70.60
54592;BME280;40488;48.558;18.150;2023-02-10T08:00:31;101758.84;;;-3.40;70.05
54592;BME280;40488;48.558;18.150;2023-02-10T08:03:02;101751.44;;;-3.30;70.39
54592;BME280;40488;48.558;18.150;2023-02-10T08:05:31;101768.19;;;-3.29;69.88
54592;BME280;40488;48.558;18.150;2023-02-10T08:07:59;101767.19;;;-3.21;70.21
54592;BME280;40488;48.558;18.150;2023-02-10T08:10:28;101760.72;;;-3.19;70.32
54592;BME280;40488;48.558;18.150;2023-02-10T08:12:57;101764.06;;;-3.00;70.04
54592;BME280;40488;48.558;18.150;2023-02-10T08:15:26;101755.63;;;-2.92;69.50
54592;BME280;40488;48.558;18.150;2023-02-10T08:17:54;101750.09;;;-2.98;69.87
54592;BME280;40488;48.558;18.150;2023-02-10T08:20:26;101754.91;;;-2.81;69.50
54592;BME280;40488;48.558;18.150;2023-02-10T08:22:55;101760.53;;;-2.73;69.23
54592;BME280;40488;48.558;18.150;2023-02-10T08:25:26;101742.94;;;-2.75;69.03
54592;BME280;40488;48.558;18.150;2023-02-10T08:27:54;101748.22;;;-2.72;68.79
54592;BME280;40488;48.558;18.150;2023-02-10T08:30:24;101726.19;;;-2.76;68.38
54592;BME280;40488;48.558;18.150;2023-02-10T08:32:53;101733.50;;;-2.48;68.34
54592;BME280;40488;48.558;18.150;2023-02-10T08:35:22;101709.13;;;-2.51;68.13
54592;BME280;40488;48.558;18.150;2023-02-10T08:37:52;101736.28;;;-2.25;67.61
54592;BME280;40488;48.558;18.150;2023-02-10T08:40:21;101733.06;;;-2.04;68.04
54592;BME280;40488;48.558;18.150;2023-02-10T08:42:49;101731.56;;;-2.12;67.16
54592;BME280;40488;48.558;18.150;2023-02-10T08:45:19;101731.78;;;-1.99;67.07
54592;BME280;40488;48.558;18.150;2023-02-10T08:47:48;101731.06;;;-2.08;66.62
54592;BME280;40488;48.558;18.150;2023-02-10T08:50:17;101722.31;;;-2.23;66.09
54592;BME280;40488;48.558;18.150;2023-02-10T08:52:46;101729.78;;;-2.13;66.56
54592;BME280;40488;48.558;18.150;2023-02-10T08:55:16;101724.28;;;-1.99;66.19
54592;BME280;40488;48.558;18.150;2023-02-10T08:57:45;101718.44;;;-1.99;66.27
54592;BME280;40488;48.558;18.150;2023-02-10T09:00:15;101724.28;;;-1.99;66.30
54592;BME280;40488;48.558;18.150;2023-02-10T09:02:44;101730.31;;;-1.97;66.14
54592;BME280;40488;48.558;18.150;2023-02-10T09:05:13;101734.19;;;-1.90;66.20
54592;BME280;40488;48.558;18.150;2023-02-10T09:07:42;101732.78;;;-1.77;66.28
54592;BME280;40488;48.558;18.150;2023-02-10T09:10:11;101739.81;;;-1.73;65.83
54592;BME280;40488;48.558;18.150;2023-02-10T09:12:42;101733.66;;;-1.76;65.61
54592;BME280;40488;48.558;18.150;2023-02-10T09:15:11;101733.31;;;-1.71;65.88
54592;BME280;40488;48.558;18.150;2023-02-10T09:17:40;101740.50;;;-1.44;65.96
54592;BME280;40488;48.558;18.150;2023-02-10T09:20:09;101739.88;;;-1.41;65.76
54592;BME280;40488;48.558;18.150;2023-02-10T09:22:38;101742.00;;;-1.46;65.80
54592;BME280;40488;48.558;18.150;2023-02-10T09:25:07;101739.66;;;-1.44;65.51
54592;BME280;40488;48.558;18.150;2023-02-10T09:27:36;101753.38;;;-1.39;65.65
54592;BME280;40488;48.558;18.150;2023-02-10T09:30:07;101753.25;;;-1.30;65.79
54592;BME280;40488;48.558;18.150;2023-02-10T09:32:36;101754.47;;;-1.15;65.73
54592;BME280;40488;48.558;18.150;2023-02-10T09:35:05;101751.06;;;-1.06;65.42
54592;BME280;40488;48.558;18.150;2023-02-10T09:37:34;101753.25;;;-0.67;65.91
54592;BME280;40488;48.558;18.150;2023-02-10T09:40:03;101749.50;;;-0.29;65.36
54592;BME280;40488;48.558;18.150;2023-02-10T09:42:42;101755.09;;;0.00;65.48
54592;BME280;40488;48.558;18.150;2023-02-10T09:45:21;101748.84;;;0.29;64.92
54592;BME280;40488;48.558;18.150;2023-02-10T09:47:52;101753.53;;;0.36;64.92
54592;BME280;40488;48.558;18.150;2023-02-10T09:50:34;101753.22;;;0.43;63.81
54592;BME280;40488;48.558;18.150;2023-02-10T09:53:10;101747.34;;;0.54;63.68
54592;BME280;40488;48.558;18.150;2023-02-10T09:55:45;101751.28;;;0.74;62.82
54592;BME280;40488;48.558;18.150;2023-02-10T09:58:21;101746.16;;;0.84;62.51
54592;BME280;40488;48.558;18.150;2023-02-10T10:00:58;101744.72;;;0.87;62.31
54592;BME280;40488;48.558;18.150;2023-02-10T10:03:37;101734.25;;;0.81;61.56
54592;BME280;40488;48.558;18.150;2023-02-10T10:06:15;101743.41;;;0.92;61.82
54592;BME280;40488;48.558;18.150;2023-02-10T10:08:56;101738.16;;;0.89;61.51
54592;BME280;40488;48.558;18.150;2023-02-10T10:11:35;101734.66;;;0.87;61.61
54592;BME280;40488;48.558;18.150;2023-02-10T10:14:05;101727.28;;;1.13;61.65
54592;BME280;40488;48.558;18.150;2023-02-10T10:17:02;101731.31;;;1.23;61.84
54592;BME280;40488;48.558;18.150;2023-02-10T10:19:44;101724.09;;;1.27;60.65
54592;BME280;40488;48.558;18.150;2023-02-10T10:22:29;101731.94;;;1.44;60.91
54592;BME280;40488;48.558;18.150;2023-02-10T10:25:19;101730.63;;;1.49;61.03
54592;BME280;40488;48.558;18.150;2023-02-10T10:27:58;101713.19;;;1.52;60.20
54592;BME280;40488;48.558;18.150;2023-02-10T10:30:42;101718.50;;;1.68;60.31
54592;BME280;40488;48.558;18.150;2023-02-10T10:33:22;101702.47;;;1.79;60.27
54592;BME280;40488;48.558;18.150;2023-02-10T10:35:51;101711.22;;;1.97;60.26
54592;BME280;40488;48.558;18.150;2023-02-10T10:38:23;101698.38;;;2.06;59.40
54592;BME280;40488;48.558;18.150;2023-02-10T10:40:55;101690.34;;;2.11;59.92
54592;BME280;40488;48.558;18.150;2023-02-10T10:43:29;101680.84;;;2.07;60.15
54592;BME280;40488;48.558;18.150;2023-02-10T10:46:03;101675.03;;;2.21;59.63
54592;BME280;40488;48.558;18.150;2023-02-10T10:48:37;101668.66;;;2.26;59.81
54592;BME280;40488;48.558;18.150;2023-02-10T10:51:09;101668.28;;;2.20;59.97
54592;BME280;40488;48.558;18.150;2023-02-10T10:53:41;101668.81;;;2.03;59.58
54592;BME280;40488;48.558;18.150;2023-02-10T10:56:17;101665.75;;;2.33;60.14
54592;BME280;40488;48.558;18.150;2023-02-10T10:58:49;101659.34;;;2.38;59.93
54592;BME280;40488;48.558;18.150;2023-02-10T11:01:31;101654.91;;;2.34;59.69
54592;BME280;40488;48.558;18.150;2023-02-10T11:04:05;101652.41;;;2.34;59.22
54592;BME280;40488;48.558;18.150;2023-02-10T11:06:36;101649.38;;;2.27;59.43
54592;BME280;40488;48.558;18.150;2023-02-10T11:09:13;101649.69;;;2.44;60.15
54592;BME280;40488;48.558;18.150;2023-02-10T11:11:45;101651.63;;;2.48;58.95
54592;BME280;40488;48.558;18.150;2023-02-10T11:14:15;101647.63;;;2.65;59.70
54592;BME280;40488;48.558;18.150;2023-02-10T11:16:47;101643.25;;;2.76;58.83
54592;BME280;40488;48.558;18.150;2023-02-10T11:19:23;101644.00;;;2.88;58.89
54592;BME280;40488;48.558;18.150;2023-02-10T11:21:53;101638.31;;;3.05;58.47
54592;BME280;40488;48.558;18.150;2023-02-10T11:24:25;101639.19;;;3.05;58.39
54592;BME280;40488;48.558;18.150;2023-02-10T11:27:00;101636.94;;;3.10;58.29
54592;BME280;40488;48.558;18.150;2023-02-10T11:29:32;101630.22;;;3.23;58.20
54592;BME280;40488;48.558;18.150;2023-02-10T11:32:02;101634.91;;;3.45;57.84
54592;BME280;40488;48.558;18.150;2023-02-10T11:34:37;101638.91;;;3.14;56.72
54592;BME280;40488;48.558;18.150;2023-02-10T11:37:12;101628.59;;;3.38;56.10
54592;BME280;40488;48.558;18.150;2023-02-10T11:39:44;101625.66;;;3.60;55.93
54592;BME280;40488;48.558;18.150;2023-02-10T11:42:18;101624.56;;;3.84;55.82
54592;BME280;40488;48.558;18.150;2023-02-10T11:44:55;101625.25;;;3.96;55.46
54592;BME280;40488;48.558;18.150;2023-02-10T11:47:26;101620.22;;;3.96;54.50
54592;BME280;40488;48.558;18.150;2023-02-10T11:49:57;101631.88;;;3.94;54.35
54592;BME280;40488;48.558;18.150;2023-02-10T11:52:28;101631.63;;;4.19;55.17
54592;BME280;40488;48.558;18.150;2023-02-10T11:54:58;101618.47;;;4.25;54.04
54592;BME280;40488;48.558;18.150;2023-02-10T11:57:34;101630.97;;;4.38;53.48
54592;BME280;40488;48.558;18.150;2023-02-10T12:00:20;101632.56;;;4.36;53.63
54592;BME280;40488;48.558;18.150;2023-02-10T12:06:03;101627.81;;;4.42;54.06
54592;BME280;40488;48.558;18.150;2023-02-10T12:08:42;101611.94;;;4.44;54.27
54592;BME280;40488;48.558;18.150;2023-02-10T12:11:17;101614.72;;;4.49;54.05
54592;BME280;40488;48.558;18.150;2023-02-10T12:13:53;101611.47;;;4.35;54.06
54592;BME280;40488;48.558;18.150;2023-02-10T12:16:34;101621.72;;;4.53;54.23
54592;BME280;40488;48.558;18.150;2023-02-10T12:19:15;101609.28;;;4.72;53.82
54592;BME280;40488;48.558;18.150;2023-02-10T12:22:01;101604.38;;;4.75;53.70
54592;BME280;40488;48.558;18.150;2023-02-10T12:24:47;101601.59;;;4.70;53.55
54592;BME280;40488;48.558;18.150;2023-02-10T12:27:22;101596.47;;;4.69;53.13
54592;BME280;40488;48.558;18.150;2023-02-10T12:30:01;101603.81;;;4.34;52.88
54592;BME280;40488;48.558;18.150;2023-02-10T12:32:40;101599.28;;;4.28;53.22
54592;BME280;40488;48.558;18.150;2023-02-10T12:35:25;101601.41;;;4.37;52.99
54592;BME280;40488;48.558;18.150;2023-02-10T12:38:10;101575.50;;;4.25;52.66
54592;BME280;40488;48.558;18.150;2023-02-10T12:41:00;101599.56;;;4.49;53.05
54592;BME280;40488;48.558;18.150;2023-02-10T12:43:53;101590.09;;;4.61;52.68
54592;BME280;40488;48.558;18.150;2023-02-10T12:46:36;101585.88;;;4.76;53.28
54592;BME280;40488;48.558;18.150;2023-02-10T12:49:20;101588.16;;;4.71;53.08
54592;BME280;40488;48.558;18.150;2023-02-10T12:52:00;101586.22;;;4.82;53.73
54592;BME280;40488;48.558;18.150;2023-02-10T12:54:36;101584.63;;;4.84;53.40
54592;BME280;40488;48.558;18.150;2023-02-10T12:57:15;101581.00;;;4.95;53.16
54592;BME280;40488;48.558;18.150;2023-02-10T12:59:53;101577.81;;;4.99;53.20
54592;BME280;40488;48.558;18.150;2023-02-10T13:02:28;101571.66;;;4.78;52.97
54592;BME280;40488;48.558;18.150;2023-02-10T13:05:02;101566.22;;;4.56;53.29
54592;BME280;40488;48.558;18.150;2023-02-10T13:07:39;101571.53;;;4.30;53.28
54592;BME280;40488;48.558;18.150;2023-02-10T13:10:26;101572.97;;;4.25;53.89
54592;BME280;40488;48.558;18.150;2023-02-10T13:13:00;101574.03;;;4.14;54.05
54592;BME280;40488;48.558;18.150;2023-02-10T13:15:35;101564.63;;;4.11;54.37
54592;BME280;40488;48.558;18.150;2023-02-10T13:18:17;101555.38;;;4.12;54.68